»·PEaware :: AAL1197 KDEN-KSLC

AAL1197 :: KDEN-KSLC

FLIGHT INFORMATION

Flight Status: Arrived
Operator:
American Airlines
More flights by this operator :: More flights under this callsign
Pilot: Adam A. (5112)
Aircraft: BOEING 737-800
(B738)
More flights by this aircraft type
Origin: KDEN Denver Intl
United States
Destination: KSLC Salt Lake City Intl
United States
More flights between these airports :: More routes between these airports
Route: FOOOT4 RLG EKR LEEHY5
File this flight plan on PilotEdge
Remarks:
Altitude:
(Current/Filed)
36,000ft
Speed:
(Current/Filed)
457kts
Departed: 02-Dec-18 12:07 PM
Arrived: 02-Dec-18 01:08 PM
Distance/Time
Traveled:
339nm/1:01
Distance/Time
To Go:
Arrived

Flight Plot

Page will automatically refresh every two minutes.

Flight plan parsing failed; only flown route is shown


Map Options




Map Legend


Flown Route
Filed Route
Departure Airport
Arrival Airport
Navaid (VOR, NDB)
Fix

Horizontal Profiles

Position Reports

Time Latitude Longitude Heading Altitude Ground
Speed
02-Dec-18 11:37 39.854501 -104.671232 180 5439ft 0kts
02-Dec-18 11:38 39.854501 -104.671232 180 5439ft 0kts
02-Dec-18 11:39 39.854501 -104.671232 180 5439ft 0kts
02-Dec-18 11:40 39.854501 -104.671232 180 5439ft 0kts
02-Dec-18 11:41 39.854501 -104.671232 180 5439ft 0kts
02-Dec-18 11:42 39.854501 -104.671232 180 5439ft 0kts
02-Dec-18 11:43 39.854501 -104.671232 180 5439ft 0kts
02-Dec-18 11:44 39.854501 -104.671232 180 5439ft 0kts
02-Dec-18 11:45 39.854501 -104.671232 180 5439ft 0kts
02-Dec-18 11:46 39.854501 -104.671232 180 5439ft 0kts
02-Dec-18 11:47 39.854501 -104.671232 180 5439ft 0kts
02-Dec-18 11:48 39.854501 -104.671232 180 5439ft 0kts
02-Dec-18 11:49 39.854501 -104.671232 180 5439ft 0kts
02-Dec-18 11:50 39.854501 -104.671232 180 5439ft 0kts
02-Dec-18 11:51 39.854501 -104.671232 180 5439ft 0kts
02-Dec-18 11:52 39.854501 -104.671232 180 5439ft 0kts
02-Dec-18 11:53 39.854501 -104.671232 180 5439ft 0kts
02-Dec-18 11:54 39.854501 -104.671232 180 5439ft 0kts
02-Dec-18 11:55 39.854501 -104.671232 179 5439ft 0kts
02-Dec-18 11:56 39.854501 -104.671232 180 5439ft 0kts
02-Dec-18 11:57 39.855106 -104.671230 184 5439ft 0kts
02-Dec-18 11:58 39.854914 -104.671275 194 5439ft 0kts
02-Dec-18 11:59 39.855341 -104.674938 273 5439ft 26kts
02-Dec-18 12:00 39.855967 -104.680779 269 5439ft 0kts
02-Dec-18 12:01 39.855700 -104.682082 276 5439ft 13kts
02-Dec-18 12:02 39.850844 -104.684011 183 5439ft 36kts
02-Dec-18 12:03 39.842702 -104.684109 180 5439ft 0kts
02-Dec-18 12:04 39.842702 -104.684109 180 5439ft 0kts
02-Dec-18 12:05 39.842624 -104.684110 180 5439ft 2kts
02-Dec-18 12:06 39.841876 -104.684113 179 5439ft 0kts
02-Dec-18 12:09 39.841801 -104.684113 179 5439ft 5kts
02-Dec-18 12:10 39.840741 -104.696347 269 5439ft 118kts
02-Dec-18 12:11 39.841820 -104.755425 277 7024ft 221kts
02-Dec-18 12:12 39.869534 -104.820446 303 9121ft 261kts
02-Dec-18 12:13 39.915659 -104.915543 299 10071ft 266kts
02-Dec-18 12:14 39.945304 -104.985925 294 10070ft 268kts
02-Dec-18 12:15 39.961626 -105.112307 278 11362ft 328kts
02-Dec-18 12:16 39.972819 -105.210710 278 14058ft 332kts
02-Dec-18 12:17 39.986780 -105.331924 276 17540ft 347kts
02-Dec-18 12:18 39.981955 -105.482342 267 20371ft 364kts
02-Dec-18 12:19 39.978114 -105.593771 268 22684ft 376kts
02-Dec-18 12:20 39.974291 -105.730488 268 22999ft 379kts
02-Dec-18 12:21 39.971906 -105.867576 272 22769ft 382kts
02-Dec-18 12:22 39.979170 -106.002677 274 21363ft 369kts
02-Dec-18 12:23 39.986530 -106.134669 274 19963ft 362kts
02-Dec-18 12:24 39.993550 -106.263377 274 18690ft 351kts
02-Dec-18 12:25 40.000423 -106.392435 274 19461ft 361kts
02-Dec-18 12:26 40.007133 -106.525397 273 22053ft 375kts
02-Dec-18 12:27 40.012982 -106.663237 272 24409ft 389kts
02-Dec-18 12:28 40.018634 -106.805046 272 26521ft 401kts
02-Dec-18 12:29 40.024481 -106.949777 273 28913ft 399kts
02-Dec-18 12:30 40.030418 -107.092962 273 31083ft 395kts
02-Dec-18 12:31 40.036482 -107.235306 273 33009ft 391kts
02-Dec-18 12:32 40.042641 -107.376072 273 34708ft 388kts
02-Dec-18 12:33 40.048933 -107.515934 273 35992ft 388kts
02-Dec-18 12:34 40.055581 -107.660153 273 36000ft 411kts
02-Dec-18 12:35 40.062565 -107.808112 273 35999ft 411kts
02-Dec-18 12:36 40.069650 -107.956601 273 35999ft 411kts
02-Dec-18 12:37 40.076312 -108.105530 273 36000ft 411kts
02-Dec-18 12:38 40.082811 -108.254124 273 36000ft 411kts
02-Dec-18 12:39 40.089346 -108.407106 273 36007ft 441kts
02-Dec-18 12:40 40.096047 -108.568564 273 35999ft 448kts
02-Dec-18 12:41 40.102399 -108.726724 272 36000ft 447kts
02-Dec-18 12:42 40.108683 -108.888518 272 35999ft 447kts
02-Dec-18 12:43 40.114751 -109.050367 272 36000ft 447kts
02-Dec-18 12:44 40.120634 -109.212935 272 36007ft 454kts
02-Dec-18 12:45 40.126399 -109.378953 272 35999ft 459kts
02-Dec-18 12:46 40.131943 -109.545437 272 36000ft 459kts
02-Dec-18 12:47 40.137015 -109.704422 272 36005ft 463kts
02-Dec-18 12:48 40.141584 -109.853875 272 36000ft 471kts
02-Dec-18 12:49 40.146533 -110.023341 272 34630ft 455kts
02-Dec-18 12:50 40.149649 -110.183849 269 32535ft 443kts
02-Dec-18 12:51 40.148093 -110.345835 269 30715ft 439kts
02-Dec-18 12:52 40.146453 -110.499317 269 28905ft 418kts
02-Dec-18 12:53 40.144705 -110.650692 268 26475ft 418kts
02-Dec-18 12:54 40.142842 -110.798500 268 22726ft 400kts
02-Dec-18 12:55 40.140970 -110.935229 268 21300ft 366kts
02-Dec-18 12:56 40.138987 -111.069720 268 20241ft 367kts
02-Dec-18 12:57 40.136924 -111.200156 268 18216ft 355kts
02-Dec-18 12:58 40.134776 -111.327439 268 17325ft 349kts
02-Dec-18 12:59 40.132506 -111.453464 268 16613ft 347kts
02-Dec-18 13:00 40.139037 -111.572868 293 15822ft 343kts
02-Dec-18 13:01 40.179475 -111.682901 299 14628ft 334kts
02-Dec-18 13:02 40.242415 -111.770477 314 13429ft 330kts
02-Dec-18 13:03 40.308130 -111.852731 323 12280ft 326kts
02-Dec-18 13:04 40.376115 -111.919480 327 11214ft 318kts
02-Dec-18 13:05 40.461750 -111.939189 356 10450ft 337kts
02-Dec-18 13:06 40.545750 -111.946794 353 8820ft 296kts
02-Dec-18 13:07 40.621430 -111.957790 354 7477ft 272kts
02-Dec-18 13:08 40.689003 -111.964447 354 6675ft 215kts
02-Dec-18 13:09 40.738920 -111.969038 353 5385ft 161kts
02-Dec-18 13:10 40.779022 -111.973654 354 4235ft 139kts
02-Dec-18 13:11 40.791804 -111.975776 321 4235ft 19kts
02-Dec-18 13:12 40.791007 -111.978761 172 4235ft 15kts
02-Dec-18 13:13 40.789236 -111.978344 188 4235ft 0kts
02-Dec-18 13:14 40.789237 -111.978344 188 4235ft 0kts

Navigation Log

Ident Type
Flight plan parsing failed, navigation log unavailable